sensor_id;sensor_type;location;lat;lon;timestamp;P1;durP1;ratioP1;P2;durP2;ratioP2
7675;SDS011;3880;51.464;-2.566;2023-01-08T00:01:29;27.17;;;5.67;;
7675;SDS011;3880;51.464;-2.566;2023-01-08T00:03:58;23.13;;;5.97;;
7675;SDS011;3880;51.464;-2.566;2023-01-08T00:06:26;31.23;;;5.50;;
7675;SDS011;3880;51.464;-2.566;2023-01-08T00:08:53;27.70;;;5.30;;
7675;SDS011;3880;51.464;-2.566;2023-01-08T00:11:21;22.20;;;4.67;;
7675;SDS011;3880;51.464;-2.566;2023-01-08T00:13:50;22.73;;;5.50;;
7675;SDS011;3880;51.464;-2.566;2023-01-08T00:16:18;24.17;;;6.60;;
7675;SDS011;3880;51.464;-2.566;2023-01-08T00:18:45;37.53;;;6.30;;
7675;SDS011;3880;51.464;-2.566;2023-01-08T00:21:13;24.53;;;5.03;;
7675;SDS011;3880;51.464;-2.566;2023-01-08T00:23:40;18.93;;;4.10;;
7675;SDS011;3880;51.464;-2.566;2023-01-08T00:26:08;22.20;;;5.27;;
7675;SDS011;3880;51.464;-2.566;2023-01-08T00:28:36;43.37;;;6.60;;
7675;SDS011;3880;51.464;-2.566;2023-01-08T00:31:06;18.00;;;4.17;;
7675;SDS011;3880;51.464;-2.566;2023-01-08T00:33:35;37.60;;;6.57;;
7675;SDS011;3880;51.464;-2.566;2023-01-08T00:36:05;26.47;;;5.30;;
7675;SDS011;3880;51.464;-2.566;2023-01-08T00:38:33;23.50;;;6.00;;
7675;SDS011;3880;51.464;-2.566;2023-01-08T00:41:01;24.03;;;5.10;;
7675;SDS011;3880;51.464;-2.566;2023-01-08T00:43:28;25.87;;;5.17;;
7675;SDS011;3880;51.464;-2.566;2023-01-08T00:45:55;33.63;;;5.60;;
7675;SDS011;3880;51.464;-2.566;2023-01-08T00:48:23;34.10;;;6.30;;
7675;SDS011;3880;51.464;-2.566;2023-01-08T00:50:50;22.57;;;5.37;;
7675;SDS011;3880;51.464;-2.566;2023-01-08T00:53:19;30.10;;;4.90;;
7675;SDS011;3880;51.464;-2.566;2023-01-08T00:55:47;39.50;;;7.00;;
7675;SDS011;3880;51.464;-2.566;2023-01-08T00:58:17;23.70;;;4.60;;
7675;SDS011;3880;51.464;-2.566;2023-01-08T01:00:47;34.07;;;5.77;;
7675;SDS011;3880;51.464;-2.566;2023-01-08T01:03:13;24.17;;;4.80;;
7675;SDS011;3880;51.464;-2.566;2023-01-08T01:05:42;25.13;;;5.67;;
7675;SDS011;3880;51.464;-2.566;2023-01-08T01:08:09;36.63;;;7.10;;
7675;SDS011;3880;51.464;-2.566;2023-01-08T01:10:37;18.27;;;5.00;;
7675;SDS011;3880;51.464;-2.566;2023-01-08T01:13:04;18.00;;;4.27;;
7675;SDS011;3880;51.464;-2.566;2023-01-08T01:15:31;21.53;;;4.40;;
7675;SDS011;3880;51.464;-2.566;2023-01-08T01:17:59;15.27;;;4.63;;
7675;SDS011;3880;51.464;-2.566;2023-01-08T01:20:26;27.10;;;5.80;;
7675;SDS011;3880;51.464;-2.566;2023-01-08T01:22:54;27.73;;;5.30;;
7675;SDS011;3880;51.464;-2.566;2023-01-08T01:25:22;17.13;;;5.33;;
7675;SDS011;3880;51.464;-2.566;2023-01-08T01:27:49;19.47;;;4.03;;
7675;SDS011;3880;51.464;-2.566;2023-01-08T01:30:16;16.47;;;4.13;;
7675;SDS011;3880;51.464;-2.566;2023-01-08T01:32:43;20.63;;;3.73;;
7675;SDS011;3880;51.464;-2.566;2023-01-08T01:35:10;25.37;;;3.33;;
7675;SDS011;3880;51.464;-2.566;2023-01-08T01:37:37;26.97;;;5.17;;
7675;SDS011;3880;51.464;-2.566;2023-01-08T01:40:06;23.77;;;5.07;;
7675;SDS011;3880;51.464;-2.566;2023-01-08T01:42:34;14.63;;;3.70;;
7675;SDS011;3880;51.464;-2.566;2023-01-08T01:45:16;13.60;;;3.73;;
7675;SDS011;3880;51.464;-2.566;2023-01-08T01:47:45;19.67;;;4.63;;
7675;SDS011;3880;51.464;-2.566;2023-01-08T01:50:16;15.60;;;3.27;;
7675;SDS011;3880;51.464;-2.566;2023-01-08T01:52:49;14.93;;;3.73;;
7675;SDS011;3880;51.464;-2.566;2023-01-08T01:55:22;19.00;;;5.83;;
7675;SDS011;3880;51.464;-2.566;2023-01-08T01:58:03;15.77;;;4.03;;
7675;SDS011;3880;51.464;-2.566;2023-01-08T02:00:33;13.80;;;3.90;;
7675;SDS011;3880;51.464;-2.566;2023-01-08T02:03:01;19.63;;;4.53;;
7675;SDS011;3880;51.464;-2.566;2023-01-08T02:05:37;22.23;;;6.73;;
7675;SDS011;3880;51.464;-2.566;2023-01-08T02:08:29;14.50;;;4.07;;
7675;SDS011;3880;51.464;-2.566;2023-01-08T02:11:08;14.07;;;3.63;;
7675;SDS011;3880;51.464;-2.566;2023-01-08T02:13:56;24.70;;;5.10;;
7675;SDS011;3880;51.464;-2.566;2023-01-08T02:16:32;14.17;;;3.77;;
7675;SDS011;3880;51.464;-2.566;2023-01-08T02:19:06;27.47;;;5.40;;
7675;SDS011;3880;51.464;-2.566;2023-01-08T02:21:49;21.00;;;4.50;;
7675;SDS011;3880;51.464;-2.566;2023-01-08T02:24:29;18.80;;;4.57;;
7675;SDS011;3880;51.464;-2.566;2023-01-08T02:27:08;24.43;;;5.33;;
7675;SDS011;3880;51.464;-2.566;2023-01-08T02:29:38;18.07;;;3.10;;
7675;SDS011;3880;51.464;-2.566;2023-01-08T02:32:06;20.50;;;4.60;;
7675;SDS011;3880;51.464;-2.566;2023-01-08T02:34:33;20.67;;;3.50;;
7675;SDS011;3880;51.464;-2.566;2023-01-08T02:37:09;17.90;;;3.63;;
7675;SDS011;3880;51.464;-2.566;2023-01-08T02:39:55;16.70;;;3.77;;
7675;SDS011;3880;51.464;-2.566;2023-01-08T02:45:34;8.43;;;3.30;;
7675;SDS011;3880;51.464;-2.566;2023-01-08T02:48:11;16.07;;;3.67;;
7675;SDS011;3880;51.464;-2.566;2023-01-08T02:53:43;17.73;;;3.83;;
7675;SDS011;3880;51.464;-2.566;2023-01-08T02:56:14;8.03;;;2.87;;
7675;SDS011;3880;51.464;-2.566;2023-01-08T02:58:45;13.33;;;3.40;;
7675;SDS011;3880;51.464;-2.566;2023-01-08T03:01:15;6.20;;;2.33;;
7675;SDS011;3880;51.464;-2.566;2023-01-08T03:03:44;10.03;;;2.67;;
7675;SDS011;3880;51.464;-2.566;2023-01-08T03:06:17;11.03;;;3.87;;
7675;SDS011;3880;51.464;-2.566;2023-01-08T03:08:46;11.43;;;3.13;;
7675;SDS011;3880;51.464;-2.566;2023-01-08T03:11:15;8.30;;;2.37;;
7675;SDS011;3880;51.464;-2.566;2023-01-08T03:13:44;9.53;;;2.80;;
7675;SDS011;3880;51.464;-2.566;2023-01-08T03:16:17;12.40;;;2.37;;
7675;SDS011;3880;51.464;-2.566;2023-01-08T03:18:51;10.83;;;2.53;;
7675;SDS011;3880;51.464;-2.566;2023-01-08T03:21:32;7.47;;;2.57;;
7675;SDS011;3880;51.464;-2.566;2023-01-08T03:24:03;12.37;;;3.70;;
7675;SDS011;3880;51.464;-2.566;2023-01-08T03:26:31;10.53;;;2.50;;
7675;SDS011;3880;51.464;-2.566;2023-01-08T03:29:04;13.80;;;2.37;;
7675;SDS011;3880;51.464;-2.566;2023-01-08T03:31:34;10.80;;;2.33;;
7675;SDS011;3880;51.464;-2.566;2023-01-08T03:34:02;8.70;;;2.27;;
7675;SDS011;3880;51.464;-2.566;2023-01-08T03:36:30;10.20;;;3.50;;
7675;SDS011;3880;51.464;-2.566;2023-01-08T03:39:00;9.43;;;2.47;;
7675;SDS011;3880;51.464;-2.566;2023-01-08T03:41:33;7.23;;;2.10;;
7675;SDS011;3880;51.464;-2.566;2023-01-08T03:44:01;12.63;;;3.67;;
7675;SDS011;3880;51.464;-2.566;2023-01-08T03:46:31;4.87;;;2.57;;
7675;SDS011;3880;51.464;-2.566;2023-01-08T03:49:04;6.27;;;2.00;;
7675;SDS011;3880;51.464;-2.566;2023-01-08T03:51:38;10.97;;;2.57;;
7675;SDS011;3880;51.464;-2.566;2023-01-08T03:54:05;8.13;;;2.90;;
7675;SDS011;3880;51.464;-2.566;2023-01-08T03:56:36;9.03;;;1.87;;
7675;SDS011;3880;51.464;-2.566;2023-01-08T03:59:05;6.80;;;2.13;;
7675;SDS011;3880;51.464;-2.566;2023-01-08T04:01:32;8.03;;;2.10;;
7675;SDS011;3880;51.464;-2.566;2023-01-08T04:03:59;7.50;;;2.40;;
7675;SDS011;3880;51.464;-2.566;2023-01-08T04:06:28;12.27;;;2.40;;
7675;SDS011;3880;51.464;-2.566;2023-01-08T04:08:55;8.87;;;2.10;;
7675;SDS011;3880;51.464;-2.566;2023-01-08T04:11:23;4.37;;;1.73;;
7675;SDS011;3880;51.464;-2.566;2023-01-08T04:13:50;4.97;;;2.00;;
7675;SDS011;3880;51.464;-2.566;2023-01-08T04:16:18;6.43;;;2.30;;
7675;SDS011;3880;51.464;-2.566;2023-01-08T04:18:45;9.20;;;2.23;;
7675;SDS011;3880;51.464;-2.566;2023-01-08T04:21:12;9.23;;;2.07;;
7675;SDS011;3880;51.464;-2.566;2023-01-08T04:23:40;8.27;;;1.83;;
7675;SDS011;3880;51.464;-2.566;2023-01-08T04:26:07;12.90;;;2.03;;
7675;SDS011;3880;51.464;-2.566;2023-01-08T04:28:35;7.33;;;2.03;;
7675;SDS011;3880;51.464;-2.566;2023-01-08T04:31:06;12.07;;;2.50;;
7675;SDS011;3880;51.464;-2.566;2023-01-08T04:33:39;6.47;;;2.20;;
7675;SDS011;3880;51.464;-2.566;2023-01-08T04:36:23;4.30;;;1.70;;
7675;SDS011;3880;51.464;-2.566;2023-01-08T04:42:13;8.03;;;2.00;;
7675;SDS011;3880;51.464;-2.566;2023-01-08T04:48:37;6.50;;;2.80;;
7675;SDS011;3880;51.464;-2.566;2023-01-08T04:51:07;9.90;;;2.60;;
7675;SDS011;3880;51.464;-2.566;2023-01-08T04:53:35;7.00;;;2.10;;
7675;SDS011;3880;51.464;-2.566;2023-01-08T04:56:05;4.97;;;1.97;;
7675;SDS011;3880;51.464;-2.566;2023-01-08T04:58:37;9.10;;;2.00;;
7675;SDS011;3880;51.464;-2.566;2023-01-08T05:01:10;8.17;;;3.20;;
7675;SDS011;3880;51.464;-2.566;2023-01-08T05:03:39;14.47;;;3.10;;
7675;SDS011;3880;51.464;-2.566;2023-01-08T05:06:07;9.13;;;2.20;;
7675;SDS011;3880;51.464;-2.566;2023-01-08T05:08:35;7.60;;;1.90;;
7675;SDS011;3880;51.464;-2.566;2023-01-08T05:11:02;14.27;;;3.03;;
7675;SDS011;3880;51.464;-2.566;2023-01-08T05:13:30;8.27;;;2.60;;
7675;SDS011;3880;51.464;-2.566;2023-01-08T05:15:57;11.07;;;2.00;;
7675;SDS011;3880;51.464;-2.566;2023-01-08T05:18:25;5.63;;;2.40;;
7675;SDS011;3880;51.464;-2.566;2023-01-08T05:20:53;15.97;;;3.30;;
7675;SDS011;3880;51.464;-2.566;2023-01-08T05:23:21;12.27;;;2.57;;
7675;SDS011;3880;51.464;-2.566;2023-01-08T05:25:49;15.57;;;2.77;;
7675;SDS011;3880;51.464;-2.566;2023-01-08T05:28:16;5.57;;;2.10;;
7675;SDS011;3880;51.464;-2.566;2023-01-08T05:30:43;9.37;;;2.20;;
7675;SDS011;3880;51.464;-2.566;2023-01-08T05:33:10;11.47;;;2.57;;
7675;SDS011;3880;51.464;-2.566;2023-01-08T05:35:38;10.20;;;1.97;;
7675;SDS011;3880;51.464;-2.566;2023-01-08T05:38:05;9.47;;;2.00;;
7675;SDS011;3880;51.464;-2.566;2023-01-08T05:40:33;7.20;;;1.97;;
7675;SDS011;3880;51.464;-2.566;2023-01-08T05:43:01;5.20;;;1.77;;
7675;SDS011;3880;51.464;-2.566;2023-01-08T05:45:29;12.97;;;2.37;;
7675;SDS011;3880;51.464;-2.566;2023-01-08T05:47:57;5.13;;;2.13;;
7675;SDS011;3880;51.464;-2.566;2023-01-08T05:50:24;3.90;;;1.77;;
7675;SDS011;3880;51.464;-2.566;2023-01-08T05:52:51;5.57;;;1.83;;
7675;SDS011;3880;51.464;-2.566;2023-01-08T05:55:18;9.40;;;2.37;;
7675;SDS011;3880;51.464;-2.566;2023-01-08T05:57:47;9.10;;;1.90;;
7675;SDS011;3880;51.464;-2.566;2023-01-08T06:00:14;7.40;;;2.10;;
7675;SDS011;3880;51.464;-2.566;2023-01-08T06:02:44;4.40;;;2.37;;
7675;SDS011;3880;51.464;-2.566;2023-01-08T06:05:12;5.47;;;1.87;;
7675;SDS011;3880;51.464;-2.566;2023-01-08T06:07:39;5.77;;;1.70;;
7675;SDS011;3880;51.464;-2.566;2023-01-08T06:10:06;5.80;;;2.10;;
7675;SDS011;3880;51.464;-2.566;2023-01-08T06:12:34;7.60;;;2.37;;
7675;SDS011;3880;51.464;-2.566;2023-01-08T06:15:03;3.03;;;1.90;;
7675;SDS011;3880;51.464;-2.566;2023-01-08T06:17:31;4.47;;;2.10;;
7675;SDS011;3880;51.464;-2.566;2023-01-08T06:19:58;8.83;;;2.07;;
7675;SDS011;3880;51.464;-2.566;2023-01-08T06:22:25;5.33;;;2.03;;
7675;SDS011;3880;51.464;-2.566;2023-01-08T06:24:52;5.97;;;2.23;;
7675;SDS011;3880;51.464;-2.566;2023-01-08T06:27:19;9.53;;;2.40;;
7675;SDS011;3880;51.464;-2.566;2023-01-08T06:29:46;11.80;;;2.77;;
7675;SDS011;3880;51.464;-2.566;2023-01-08T06:32:15;9.40;;;2.27;;
7675;SDS011;3880;51.464;-2.566;2023-01-08T06:34:42;7.77;;;1.97;;
7675;SDS011;3880;51.464;-2.566;2023-01-08T06:37:09;10.70;;;2.53;;
7675;SDS011;3880;51.464;-2.566;2023-01-08T06:39:36;9.33;;;2.83;;
7675;SDS011;3880;51.464;-2.566;2023-01-08T06:42:03;8.60;;;2.50;;
7675;SDS011;3880;51.464;-2.566;2023-01-08T06:44:30;4.63;;;2.03;;
7675;SDS011;3880;51.464;-2.566;2023-01-08T06:46:57;10.17;;;2.67;;
7675;SDS011;3880;51.464;-2.566;2023-01-08T06:49:25;6.33;;;2.17;;
7675;SDS011;3880;51.464;-2.566;2023-01-08T06:51:52;10.93;;;3.97;;
7675;SDS011;3880;51.464;-2.566;2023-01-08T06:54:19;12.37;;;2.67;;
7675;SDS011;3880;51.464;-2.566;2023-01-08T06:56:47;8.60;;;2.63;;
7675;SDS011;3880;51.464;-2.566;2023-01-08T06:59:14;9.40;;;2.60;;
7675;SDS011;3880;51.464;-2.566;2023-01-08T07:01:41;10.23;;;2.90;;
7675;SDS011;3880;51.464;-2.566;2023-01-08T07:04:08;11.47;;;2.73;;
7675;SDS011;3880;51.464;-2.566;2023-01-08T07:06:36;17.63;;;3.33;;
7675;SDS011;3880;51.464;-2.566;2023-01-08T07:09:03;13.07;;;2.90;;
7675;SDS011;3880;51.464;-2.566;2023-01-08T07:11:30;14.47;;;2.93;;
7675;SDS011;3880;51.464;-2.566;2023-01-08T07:13:57;12.67;;;2.77;;
7675;SDS011;3880;51.464;-2.566;2023-01-08T07:16:24;12.07;;;2.70;;
7675;SDS011;3880;51.464;-2.566;2023-01-08T07:18:51;8.23;;;3.00;;
7675;SDS011;3880;51.464;-2.566;2023-01-08T07:21:18;17.77;;;3.00;;
7675;SDS011;3880;51.464;-2.566;2023-01-08T07:23:48;14.10;;;3.33;;
7675;SDS011;3880;51.464;-2.566;2023-01-08T07:26:15;13.93;;;2.60;;
7675;SDS011;3880;51.464;-2.566;2023-01-08T07:28:43;20.10;;;3.37;;
7675;SDS011;3880;51.464;-2.566;2023-01-08T07:31:10;13.43;;;2.90;;
7675;SDS011;3880;51.464;-2.566;2023-01-08T07:33:37;16.73;;;3.27;;
7675;SDS011;3880;51.464;-2.566;2023-01-08T07:36:04;14.03;;;3.13;;
7675;SDS011;3880;51.464;-2.566;2023-01-08T07:38:32;13.60;;;4.47;;
7675;SDS011;3880;51.464;-2.566;2023-01-08T07:41:01;14.87;;;2.90;;
7675;SDS011;3880;51.464;-2.566;2023-01-08T07:43:31;24.63;;;3.80;;
7675;SDS011;3880;51.464;-2.566;2023-01-08T07:46:00;21.97;;;4.17;;
7675;SDS011;3880;51.464;-2.566;2023-01-08T07:48:27;17.90;;;3.70;;
7675;SDS011;3880;51.464;-2.566;2023-01-08T07:50:59;23.57;;;3.57;;
7675;SDS011;3880;51.464;-2.566;2023-01-08T07:53:26;14.70;;;3.37;;
7675;SDS011;3880;51.464;-2.566;2023-01-08T07:55:57;12.50;;;3.43;;
7675;SDS011;3880;51.464;-2.566;2023-01-08T07:58:26;16.83;;;3.60;;
7675;SDS011;3880;51.464;-2.566;2023-01-08T08:00:53;13.77;;;3.43;;
7675;SDS011;3880;51.464;-2.566;2023-01-08T08:03:21;18.23;;;3.90;;
7675;SDS011;3880;51.464;-2.566;2023-01-08T08:05:48;26.30;;;3.47;;
7675;SDS011;3880;51.464;-2.566;2023-01-08T08:08:15;13.67;;;3.23;;
7675;SDS011;3880;51.464;-2.566;2023-01-08T08:10:42;20.23;;;2.97;;
7675;SDS011;3880;51.464;-2.566;2023-01-08T08:13:10;9.53;;;2.50;;
7675;SDS011;3880;51.464;-2.566;2023-01-08T08:15:39;14.20;;;3.37;;
7675;SDS011;3880;51.464;-2.566;2023-01-08T08:18:06;10.37;;;2.40;;
7675;SDS011;3880;51.464;-2.566;2023-01-08T08:20:33;18.53;;;3.53;;
7675;SDS011;3880;51.464;-2.566;2023-01-08T08:23:01;16.07;;;3.73;;
7675;SDS011;3880;51.464;-2.566;2023-01-08T08:25:31;10.37;;;3.23;;
7675;SDS011;3880;51.464;-2.566;2023-01-08T08:27:59;16.87;;;3.37;;
7675;SDS011;3880;51.464;-2.566;2023-01-08T08:30:27;19.27;;;3.50;;
7675;SDS011;3880;51.464;-2.566;2023-01-08T08:32:58;25.07;;;4.07;;
7675;SDS011;3880;51.464;-2.566;2023-01-08T08:35:26;15.27;;;3.13;;
7675;SDS011;3880;51.464;-2.566;2023-01-08T08:37:54;15.10;;;3.73;;
7675;SDS011;3880;51.464;-2.566;2023-01-08T08:40:22;19.17;;;3.37;;
7675;SDS011;3880;51.464;-2.566;2023-01-08T08:42:53;11.40;;;2.73;;
7675;SDS011;3880;51.464;-2.566;2023-01-08T08:45:21;17.50;;;3.63;;
7675;SDS011;3880;51.464;-2.566;2023-01-08T08:47:49;15.57;;;3.60;;
7675;SDS011;3880;51.464;-2.566;2023-01-08T08:50:17;19.30;;;4.47;;
7675;SDS011;3880;51.464;-2.566;2023-01-08T08:52:45;19.80;;;4.13;;
7675;SDS011;3880;51.464;-2.566;2023-01-08T08:55:13;15.30;;;4.20;;
7675;SDS011;3880;51.464;-2.566;2023-01-08T08:57:41;19.63;;;3.80;;
7675;SDS011;3880;51.464;-2.566;2023-01-08T09:00:09;16.37;;;3.53;;
7675;SDS011;3880;51.464;-2.566;2023-01-08T09:02:37;17.03;;;3.17;;
7675;SDS011;3880;51.464;-2.566;2023-01-08T09:05:04;17.47;;;3.90;;
7675;SDS011;3880;51.464;-2.566;2023-01-08T09:07:33;11.40;;;3.57;;
7675;SDS011;3880;51.464;-2.566;2023-01-08T09:10:00;13.80;;;2.93;;
7675;SDS011;3880;51.464;-2.566;2023-01-08T09:12:28;15.43;;;4.37;;
7675;SDS011;3880;51.464;-2.566;2023-01-08T09:14:55;13.47;;;4.03;;
7675;SDS011;3880;51.464;-2.566;2023-01-08T09:17:22;20.70;;;4.17;;
7675;SDS011;3880;51.464;-2.566;2023-01-08T09:19:50;15.50;;;3.60;;
7675;SDS011;3880;51.464;-2.566;2023-01-08T09:22:17;14.57;;;4.13;;
7675;SDS011;3880;51.464;-2.566;2023-01-08T09:24:46;16.43;;;4.43;;
7675;SDS011;3880;51.464;-2.566;2023-01-08T09:27:13;24.50;;;4.00;;
7675;SDS011;3880;51.464;-2.566;2023-01-08T09:29:41;12.03;;;4.00;;
7675;SDS011;3880;51.464;-2.566;2023-01-08T09:32:08;19.00;;;5.27;;
7675;SDS011;3880;51.464;-2.566;2023-01-08T09:34:35;26.43;;;4.60;;
7675;SDS011;3880;51.464;-2.566;2023-01-08T09:37:02;17.07;;;4.80;;
7675;SDS011;3880;51.464;-2.566;2023-01-08T09:39:29;15.97;;;3.33;;
7675;SDS011;3880;51.464;-2.566;2023-01-08T09:42:01;16.83;;;3.60;;
7675;SDS011;3880;51.464;-2.566;2023-01-08T09:44:32;16.27;;;4.03;;
7675;SDS011;3880;51.464;-2.566;2023-01-08T09:47:03;19.77;;;3.07;;
7675;SDS011;3880;51.464;-2.566;2023-01-08T09:49:34;12.43;;;2.83;;
7675;SDS011;3880;51.464;-2.566;2023-01-08T09:52:07;9.27;;;2.60;;
7675;SDS011;3880;51.464;-2.566;2023-01-08T09:54:36;11.23;;;2.50;;
7675;SDS011;3880;51.464;-2.566;2023-01-08T09:57:08;7.27;;;1.90;;
7675;SDS011;3880;51.464;-2.566;2023-01-08T09:59:38;7.33;;;2.13;;
7675;SDS011;3880;51.464;-2.566;2023-01-08T10:02:09;12.53;;;2.23;;
7675;SDS011;3880;51.464;-2.566;2023-01-08T10:04:39;10.00;;;2.17;;
7675;SDS011;3880;51.464;-2.566;2023-01-08T10:07:10;10.83;;;2.57;;
7675;SDS011;3880;51.464;-2.566;2023-01-08T10:09:43;6.77;;;1.70;;
7675;SDS011;3880;51.464;-2.566;2023-01-08T10:12:11;10.37;;;2.60;;
7675;SDS011;3880;51.464;-2.566;2023-01-08T10:14:39;11.37;;;3.00;;
7675;SDS011;3880;51.464;-2.566;2023-01-08T10:17:15;7.63;;;3.13;;
7675;SDS011;3880;51.464;-2.566;2023-01-08T10:19:49;11.70;;;2.73;;
7675;SDS011;3880;51.464;-2.566;2023-01-08T10:22:16;9.37;;;2.80;;
7675;SDS011;3880;51.464;-2.566;2023-01-08T10:24:46;11.47;;;2.60;;
7675;SDS011;3880;51.464;-2.566;2023-01-08T10:27:15;9.10;;;3.33;;
7675;SDS011;3880;51.464;-2.566;2023-01-08T10:29:43;12.23;;;2.50;;
7675;SDS011;3880;51.464;-2.566;2023-01-08T10:32:12;17.10;;;2.87;;
7675;SDS011;3880;51.464;-2.566;2023-01-08T10:34:45;8.80;;;2.33;;
7675;SDS011;3880;51.464;-2.566;2023-01-08T10:37:14;10.00;;;2.07;;
7675;SDS011;3880;51.464;-2.566;2023-01-08T10:39:49;5.23;;;2.00;;
7675;SDS011;3880;51.464;-2.566;2023-01-08T10:42:19;8.00;;;1.93;;
7675;SDS011;3880;51.464;-2.566;2023-01-08T10:44:52;7.37;;;1.80;;
7675;SDS011;3880;51.464;-2.566;2023-01-08T10:47:22;4.73;;;1.97;;
7675;SDS011;3880;51.464;-2.566;2023-01-08T10:49:52;4.97;;;2.20;;
7675;SDS011;3880;51.464;-2.566;2023-01-08T10:52:25;6.20;;;1.70;;
7675;SDS011;3880;51.464;-2.566;2023-01-08T10:54:55;7.13;;;2.10;;
7675;SDS011;3880;51.464;-2.566;2023-01-08T10:57:25;5.20;;;1.83;;
7675;SDS011;3880;51.464;-2.566;2023-01-08T10:59:53;8.37;;;1.67;;
7675;SDS011;3880;51.464;-2.566;2023-01-08T11:02:24;6.50;;;1.47;;
7675;SDS011;3880;51.464;-2.566;2023-01-08T11:04:57;4.93;;;1.77;;
7675;SDS011;3880;51.464;-2.566;2023-01-08T11:07:25;5.83;;;1.60;;
7675;SDS011;3880;51.464;-2.566;2023-01-08T11:09:52;5.90;;;1.53;;
7675;SDS011;3880;51.464;-2.566;2023-01-08T11:12:34;2.27;;;1.13;;
7675;SDS011;3880;51.464;-2.566;2023-01-08T11:15:04;7.67;;;1.87;;
7675;SDS011;3880;51.464;-2.566;2023-01-08T11:17:45;4.20;;;1.50;;
7675;SDS011;3880;51.464;-2.566;2023-01-08T11:20:17;6.43;;;1.60;;
7675;SDS011;3880;51.464;-2.566;2023-01-08T11:22:47;2.50;;;1.63;;
7675;SDS011;3880;51.464;-2.566;2023-01-08T11:25:17;4.73;;;1.23;;
7675;SDS011;3880;51.464;-2.566;2023-01-08T11:27:51;4.83;;;1.77;;
7675;SDS011;3880;51.464;-2.566;2023-01-08T11:30:20;3.40;;;1.20;;
7675;SDS011;3880;51.464;-2.566;2023-01-08T11:32:50;2.50;;;1.60;;
7675;SDS011;3880;51.464;-2.566;2023-01-08T11:35:24;3.33;;;1.53;;
7675;SDS011;3880;51.464;-2.566;2023-01-08T11:37:53;1.30;;;1.20;;
7675;SDS011;3880;51.464;-2.566;2023-01-08T11:40:26;7.17;;;1.40;;
7675;SDS011;3880;51.464;-2.566;2023-01-08T11:43:19;4.23;;;1.33;;
7675;SDS011;3880;51.464;-2.566;2023-01-08T11:45:56;1.43;;;0.80;;
7675;SDS011;3880;51.464;-2.566;2023-01-08T11:48:38;1.63;;;1.20;;
7675;SDS011;3880;51.464;-2.566;2023-01-08T11:54:26;3.53;;;1.10;;
7675;SDS011;3880;51.464;-2.566;2023-01-08T11:57:12;2.50;;;1.47;;
7675;SDS011;3880;51.464;-2.566;2023-01-08T12:00:00;4.23;;;1.20;;
7675;SDS011;3880;51.464;-2.566;2023-01-08T12:02:43;2.03;;;1.20;;
7675;SDS011;3880;51.464;-2.566;2023-01-08T12:05:21;2.57;;;1.20;;
7675;SDS011;3880;51.464;-2.566;2023-01-08T12:08:03;5.43;;;2.03;;
7675;SDS011;3880;51.464;-2.566;2023-01-08T12:10:37;4.23;;;1.40;;
7675;SDS011;3880;51.464;-2.566;2023-01-08T12:13:18;1.70;;;1.07;;
7675;SDS011;3880;51.464;-2.566;2023-01-08T12:16:04;2.60;;;1.37;;
7675;SDS011;3880;51.464;-2.566;2023-01-08T12:21:44;8.20;;;1.73;;
7675;SDS011;3880;51.464;-2.566;2023-01-08T12:24:25;5.83;;;1.67;;
7675;SDS011;3880;51.464;-2.566;2023-01-08T12:27:08;5.53;;;1.83;;
7675;SDS011;3880;51.464;-2.566;2023-01-08T12:29:46;5.17;;;1.97;;
7675;SDS011;3880;51.464;-2.566;2023-01-08T12:32:28;3.13;;;1.83;;
7675;SDS011;3880;51.464;-2.566;2023-01-08T12:35:02;7.67;;;2.00;;
7675;SDS011;3880;51.464;-2.566;2023-01-08T12:37:35;2.50;;;1.47;;
7675;SDS011;3880;51.464;-2.566;2023-01-08T12:40:13;8.20;;;1.87;;
7675;SDS011;3880;51.464;-2.566;2023-01-08T12:42:43;5.40;;;2.00;;
7675;SDS011;3880;51.464;-2.566;2023-01-08T12:45:13;4.60;;;1.57;;
7675;SDS011;3880;51.464;-2.566;2023-01-08T12:47:44;3.87;;;1.53;;
7675;SDS011;3880;51.464;-2.566;2023-01-08T12:50:24;2.47;;;1.40;;
7675;SDS011;3880;51.464;-2.566;2023-01-08T12:53:00;4.07;;;1.63;;
7675;SDS011;3880;51.464;-2.566;2023-01-08T12:55:37;3.13;;;1.33;;
7675;SDS011;3880;51.464;-2.566;2023-01-08T12:58:13;2.07;;;1.10;;
7675;SDS011;3880;51.464;-2.566;2023-01-08T13:00:50;2.27;;;1.20;;
7675;SDS011;3880;51.464;-2.566;2023-01-08T13:03:27;4.03;;;1.30;;
7675;SDS011;3880;51.464;-2.566;2023-01-08T13:06:09;2.87;;;2.33;;
7675;SDS011;3880;51.464;-2.566;2023-01-08T13:08:39;4.00;;;1.30;;
7675;SDS011;3880;51.464;-2.566;2023-01-08T13:11:07;5.83;;;2.00;;
7675;SDS011;3880;51.464;-2.566;2023-01-08T13:13:35;11.37;;;3.03;;
7675;SDS011;3880;51.464;-2.566;2023-01-08T13:16:17;1.53;;;1.43;;
7675;SDS011;3880;51.464;-2.566;2023-01-08T13:18:54;10.80;;;2.53;;
7675;SDS011;3880;51.464;-2.566;2023-01-08T13:21:26;4.03;;;1.40;;
7675;SDS011;3880;51.464;-2.566;2023-01-08T13:26:52;3.37;;;1.27;;
7675;SDS011;3880;51.464;-2.566;2023-01-08T13:29:24;1.80;;;1.37;;
7675;SDS011;3880;51.464;-2.566;2023-01-08T13:32:02;1.40;;;1.30;;
7675;SDS011;3880;51.464;-2.566;2023-01-08T13:34:36;3.80;;;1.20;;
7675;SDS011;3880;51.464;-2.566;2023-01-08T13:37:06;4.27;;;1.30;;
7675;SDS011;3880;51.464;-2.566;2023-01-08T13:39:34;2.33;;;1.40;;
7675;SDS011;3880;51.464;-2.566;2023-01-08T13:42:18;4.63;;;1.90;;
7675;SDS011;3880;51.464;-2.566;2023-01-08T13:44:49;2.03;;;1.40;;
7675;SDS011;3880;51.464;-2.566;2023-01-08T13:47:18;5.37;;;1.50;;
7675;SDS011;3880;51.464;-2.566;2023-01-08T13:49:53;4.17;;;1.70;;
7675;SDS011;3880;51.464;-2.566;2023-01-08T13:52:32;2.10;;;1.70;;
7675;SDS011;3880;51.464;-2.566;2023-01-08T13:55:11;4.37;;;1.97;;
7675;SDS011;3880;51.464;-2.566;2023-01-08T13:57:41;3.37;;;1.77;;
7675;SDS011;3880;51.464;-2.566;2023-01-08T14:00:20;3.50;;;1.40;;
7675;SDS011;3880;51.464;-2.566;2023-01-08T14:02:49;4.73;;;1.50;;
7675;SDS011;3880;51.464;-2.566;2023-01-08T14:05:22;1.23;;;1.10;;
7675;SDS011;3880;51.464;-2.566;2023-01-08T14:07:51;4.17;;;1.30;;
7675;SDS011;3880;51.464;-2.566;2023-01-08T14:10:18;3.33;;;1.37;;
7675;SDS011;3880;51.464;-2.566;2023-01-08T14:12:46;3.30;;;1.20;;
7675;SDS011;3880;51.464;-2.566;2023-01-08T14:15:16;1.47;;;1.37;;
7675;SDS011;3880;51.464;-2.566;2023-01-08T14:17:47;1.77;;;1.20;;
7675;SDS011;3880;51.464;-2.566;2023-01-08T14:20:19;1.50;;;1.30;;
7675;SDS011;3880;51.464;-2.566;2023-01-08T14:22:58;1.60;;;1.33;;
7675;SDS011;3880;51.464;-2.566;2023-01-08T14:25:26;1.23;;;1.00;;
7675;SDS011;3880;51.464;-2.566;2023-01-08T14:27:55;2.67;;;1.20;;
7675;SDS011;3880;51.464;-2.566;2023-01-08T14:30:24;1.00;;;1.00;;
7675;SDS011;3880;51.464;-2.566;2023-01-08T14:32:52;2.70;;;1.20;;
7675;SDS011;3880;51.464;-2.566;2023-01-08T14:35:22;2.43;;;1.63;;
7675;SDS011;3880;51.464;-2.566;2023-01-08T14:37:58;1.20;;;1.00;;
7675;SDS011;3880;51.464;-2.566;2023-01-08T14:40:27;2.30;;;1.07;;
7675;SDS011;3880;51.464;-2.566;2023-01-08T14:42:56;1.63;;;1.40;;
7675;SDS011;3880;51.464;-2.566;2023-01-08T14:45:27;1.23;;;1.13;;
7675;SDS011;3880;51.464;-2.566;2023-01-08T14:47:57;3.43;;;1.73;;
7675;SDS011;3880;51.464;-2.566;2023-01-08T14:50:27;1.20;;;1.10;;
7675;SDS011;3880;51.464;-2.566;2023-01-08T14:52:58;1.37;;;1.30;;
7675;SDS011;3880;51.464;-2.566;2023-01-08T14:55:30;3.07;;;1.30;;
7675;SDS011;3880;51.464;-2.566;2023-01-08T14:57:59;1.97;;;1.77;;
7675;SDS011;3880;51.464;-2.566;2023-01-08T15:00:27;1.07;;;1.00;;
7675;SDS011;3880;51.464;-2.566;2023-01-08T15:02:56;3.13;;;1.40;;
7675;SDS011;3880;51.464;-2.566;2023-01-08T15:05:25;3.47;;;1.20;;
7675;SDS011;3880;51.464;-2.566;2023-01-08T15:07:55;2.47;;;1.40;;
7675;SDS011;3880;51.464;-2.566;2023-01-08T15:10:30;2.33;;;1.60;;
7675;SDS011;3880;51.464;-2.566;2023-01-08T15:13:03;2.60;;;1.63;;
7675;SDS011;3880;51.464;-2.566;2023-01-08T15:15:32;1.80;;;1.70;;
7675;SDS011;3880;51.464;-2.566;2023-01-08T15:18:06;3.43;;;1.60;;
7675;SDS011;3880;51.464;-2.566;2023-01-08T15:20:37;4.23;;;1.90;;
7675;SDS011;3880;51.464;-2.566;2023-01-08T15:23:05;5.57;;;1.70;;
7675;SDS011;3880;51.464;-2.566;2023-01-08T15:25:42;1.87;;;1.37;;
7675;SDS011;3880;51.464;-2.566;2023-01-08T15:28:10;4.37;;;1.50;;
7675;SDS011;3880;51.464;-2.566;2023-01-08T15:30:42;6.17;;;2.13;;
7675;SDS011;3880;51.464;-2.566;2023-01-08T15:33:15;4.87;;;2.20;;
7675;SDS011;3880;51.464;-2.566;2023-01-08T15:35:44;2.23;;;2.03;;
7675;SDS011;3880;51.464;-2.566;2023-01-08T15:38:13;3.77;;;1.80;;